sensor_id;sensor_type;location;lat;lon;timestamp;pressure;altitude;pressure_sealevel;temperature;humidity
46690;BME280;32423;45.398;10.874;2023-02-10T00:01:28;102795.97;;;1.07;48.30
46690;BME280;32423;45.398;10.874;2023-02-10T00:04:22;102793.28;;;1.07;48.80
46690;BME280;32423;45.398;10.874;2023-02-10T00:07:17;102788.56;;;1.09;48.38
46690;BME280;32423;45.398;10.874;2023-02-10T00:10:12;102781.53;;;0.95;48.75
46690;BME280;32423;45.398;10.874;2023-02-10T00:13:06;102790.28;;;0.35;50.19
46690;BME280;32423;45.398;10.874;2023-02-10T00:15:59;102791.22;;;1.03;48.90
46690;BME280;32423;45.398;10.874;2023-02-10T00:18:53;102782.78;;;1.06;49.37
46690;BME280;32423;45.398;10.874;2023-02-10T00:21:48;102790.75;;;0.45;49.83
46690;BME280;32423;45.398;10.874;2023-02-10T00:24:42;102782.69;;;0.11;50.90
46690;BME280;32423;45.398;10.874;2023-02-10T00:27:37;102777.03;;;0.27;50.73
46690;BME280;32423;45.398;10.874;2023-02-10T00:30:32;102784.03;;;0.56;49.89
46690;BME280;32423;45.398;10.874;2023-02-10T00:33:24;102791.28;;;1.22;48.20
46690;BME280;32423;45.398;10.874;2023-02-10T00:36:18;102776.25;;;0.67;48.15
46690;BME280;32423;45.398;10.874;2023-02-10T00:39:15;102780.56;;;1.16;47.15
46690;BME280;32423;45.398;10.874;2023-02-10T00:42:09;102777.13;;;1.68;45.60
46690;BME280;32423;45.398;10.874;2023-02-10T00:45:04;102780.22;;;1.65;45.79
46690;BME280;32423;45.398;10.874;2023-02-10T00:47:59;102777.88;;;1.16;46.51
46690;BME280;32423;45.398;10.874;2023-02-10T00:50:53;102771.63;;;0.48;48.96
46690;BME280;32423;45.398;10.874;2023-02-10T00:53:48;102773.63;;;0.80;47.99
46690;BME280;32423;45.398;10.874;2023-02-10T00:56:42;102767.22;;;0.75;48.05
46690;BME280;32423;45.398;10.874;2023-02-10T00:59:37;102769.25;;;0.32;48.95
46690;BME280;32423;45.398;10.874;2023-02-10T01:02:31;102765.75;;;0.31;49.35
46690;BME280;32423;45.398;10.874;2023-02-10T01:05:26;102764.81;;;0.46;48.75
46690;BME280;32423;45.398;10.874;2023-02-10T01:08:21;102757.28;;;0.28;49.11
46690;BME280;32423;45.398;10.874;2023-02-10T01:11:14;102752.38;;;0.66;47.67
46690;BME280;32423;45.398;10.874;2023-02-10T01:14:09;102748.09;;;0.37;48.62
46690;BME280;32423;45.398;10.874;2023-02-10T01:17:01;102743.66;;;0.57;48.73
46690;BME280;32423;45.398;10.874;2023-02-10T01:19:53;102744.47;;;1.05;47.29
46690;BME280;32423;45.398;10.874;2023-02-10T01:22:47;102757.69;;;1.33;46.59
46690;BME280;32423;45.398;10.874;2023-02-10T01:25:42;102743.47;;;1.26;45.76
46690;BME280;32423;45.398;10.874;2023-02-10T01:28:34;102751.91;;;1.16;46.09
46690;BME280;32423;45.398;10.874;2023-02-10T01:31:29;102751.91;;;1.16;45.67
46690;BME280;32423;45.398;10.874;2023-02-10T01:34:24;102745.75;;;1.36;45.52
46690;BME280;32423;45.398;10.874;2023-02-10T01:37:16;102747.41;;;1.43;45.16
46690;BME280;32423;45.398;10.874;2023-02-10T01:40:09;102740.38;;;1.29;45.02
46690;BME280;32423;45.398;10.874;2023-02-10T01:43:04;102738.94;;;1.20;45.73
46690;BME280;32423;45.398;10.874;2023-02-10T01:46:04;102733.25;;;0.75;46.11
46690;BME280;32423;45.398;10.874;2023-02-10T01:49:00;102731.38;;;0.28;46.96
46690;BME280;32423;45.398;10.874;2023-02-10T01:52:02;102726.03;;;0.28;47.67
46690;BME280;32423;45.398;10.874;2023-02-10T01:55:01;102718.59;;;0.24;48.37
46690;BME280;32423;45.398;10.874;2023-02-10T01:57:57;102726.56;;;-0.17;48.73
46690;BME280;32423;45.398;10.874;2023-02-10T02:00:52;102716.00;;;0.03;48.61
46690;BME280;32423;45.398;10.874;2023-02-10T02:03:47;102708.84;;;0.57;47.65
46690;BME280;32423;45.398;10.874;2023-02-10T02:06:43;102708.72;;;0.72;47.15
46690;BME280;32423;45.398;10.874;2023-02-10T02:09:37;102706.41;;;0.56;47.30
46690;BME280;32423;45.398;10.874;2023-02-10T02:12:57;102705.88;;;0.80;46.81
46690;BME280;32423;45.398;10.874;2023-02-10T02:15:57;102696.25;;;0.04;48.84
46690;BME280;32423;45.398;10.874;2023-02-10T02:28:28;102689.72;;;-0.22;49.37
46690;BME280;32423;45.398;10.874;2023-02-10T02:31:54;102699.47;;;-0.08;49.21
46690;BME280;32423;45.398;10.874;2023-02-10T02:35:09;102691.91;;;0.03;49.10
46690;BME280;32423;45.398;10.874;2023-02-10T02:38:05;102681.22;;;0.43;47.79
46690;BME280;32423;45.398;10.874;2023-02-10T02:41:00;102687.31;;;0.24;47.80
46690;BME280;32423;45.398;10.874;2023-02-10T02:43:55;102682.88;;;0.45;47.80
46690;BME280;32423;45.398;10.874;2023-02-10T02:46:58;102681.75;;;0.26;47.63
46690;BME280;32423;45.398;10.874;2023-02-10T02:50:08;102685.00;;;0.15;48.02
46690;BME280;32423;45.398;10.874;2023-02-10T02:53:26;102687.78;;;0.41;47.93
46690;BME280;32423;45.398;10.874;2023-02-10T02:56:45;102688.66;;;-0.27;49.12
46690;BME280;32423;45.398;10.874;2023-02-10T02:59:46;102678.09;;;-0.63;50.19
46690;BME280;32423;45.398;10.874;2023-02-10T03:02:42;102680.41;;;-1.03;51.98
46690;BME280;32423;45.398;10.874;2023-02-10T03:05:35;102670.97;;;-0.77;50.56
46690;BME280;32423;45.398;10.874;2023-02-10T03:08:29;102672.91;;;-0.44;49.94
46690;BME280;32423;45.398;10.874;2023-02-10T03:11:24;102677.13;;;-0.28;49.48
46690;BME280;32423;45.398;10.874;2023-02-10T03:14:19;102673.28;;;-0.47;49.82
46690;BME280;32423;45.398;10.874;2023-02-10T03:17:13;102659.13;;;-0.13;49.64
46690;BME280;32423;45.398;10.874;2023-02-10T03:20:09;102656.56;;;0.07;48.50
46690;BME280;32423;45.398;10.874;2023-02-10T03:23:03;102658.09;;;0.23;47.92
46690;BME280;32423;45.398;10.874;2023-02-10T03:25:58;102655.19;;;0.18;47.75
46690;BME280;32423;45.398;10.874;2023-02-10T03:28:53;102652.97;;;0.28;47.41
46690;BME280;32423;45.398;10.874;2023-02-10T03:31:48;102655.22;;;0.31;47.59
46690;BME280;32423;45.398;10.874;2023-02-10T03:34:42;102662.22;;;-0.09;48.83
46690;BME280;32423;45.398;10.874;2023-02-10T03:37:37;102665.56;;;-0.63;49.93
46690;BME280;32423;45.398;10.874;2023-02-10T03:40:31;102662.72;;;-0.55;49.54
46690;BME280;32423;45.398;10.874;2023-02-10T03:43:26;102668.41;;;-0.64;50.55
46690;BME280;32423;45.398;10.874;2023-02-10T03:46:18;102675.03;;;-0.32;49.43
46690;BME280;32423;45.398;10.874;2023-02-10T03:49:13;102672.03;;;-0.23;48.57
46690;BME280;32423;45.398;10.874;2023-02-10T03:52:07;102683.06;;;-0.32;48.63
46690;BME280;32423;45.398;10.874;2023-02-10T03:55:02;102665.88;;;-0.72;49.59
46690;BME280;32423;45.398;10.874;2023-02-10T03:57:57;102673.16;;;-0.88;50.03
46690;BME280;32423;45.398;10.874;2023-02-10T04:00:51;102669.13;;;-0.98;50.11
46690;BME280;32423;45.398;10.874;2023-02-10T04:03:47;102676.63;;;-1.08;51.32
46690;BME280;32423;45.398;10.874;2023-02-10T04:06:40;102675.94;;;-1.53;52.57
46690;BME280;32423;45.398;10.874;2023-02-10T04:09:34;102670.88;;;-1.48;51.57
46690;BME280;32423;45.398;10.874;2023-02-10T04:12:29;102659.06;;;-1.39;51.67
46690;BME280;32423;45.398;10.874;2023-02-10T04:15:23;102663.22;;;-0.94;51.52
46690;BME280;32423;45.398;10.874;2023-02-10T04:18:17;102654.31;;;-1.01;51.32
46690;BME280;32423;45.398;10.874;2023-02-10T04:21:13;102658.81;;;-1.01;51.03
46690;BME280;32423;45.398;10.874;2023-02-10T04:24:05;102661.03;;;-1.26;51.80
46690;BME280;32423;45.398;10.874;2023-02-10T04:27:00;102656.38;;;-1.03;51.22
46690;BME280;32423;45.398;10.874;2023-02-10T04:29:54;102665.00;;;-0.79;50.83
46690;BME280;32423;45.398;10.874;2023-02-10T04:32:49;102662.16;;;-0.50;50.04
46690;BME280;32423;45.398;10.874;2023-02-10T04:35:43;102661.06;;;-0.83;51.11
46690;BME280;32423;45.398;10.874;2023-02-10T04:38:41;102665.38;;;-1.04;51.65
46690;BME280;32423;45.398;10.874;2023-02-10T04:41:36;102668.28;;;-1.20;52.05
46690;BME280;32423;45.398;10.874;2023-02-10T04:44:30;102664.75;;;-1.06;51.94
46690;BME280;32423;45.398;10.874;2023-02-10T04:47:25;102662.91;;;-1.92;53.29
46690;BME280;32423;45.398;10.874;2023-02-10T04:50:15;102677.91;;;-1.91;53.08
46690;BME280;32423;45.398;10.874;2023-02-10T04:53:07;102667.91;;;-1.38;52.04
46690;BME280;32423;45.398;10.874;2023-02-10T04:56:01;102667.97;;;-1.32;52.28
46690;BME280;32423;45.398;10.874;2023-02-10T04:58:55;102673.03;;;-1.37;52.41
46690;BME280;32423;45.398;10.874;2023-02-10T05:01:50;102674.13;;;-1.31;51.68
46690;BME280;32423;45.398;10.874;2023-02-10T05:04:45;102673.00;;;-1.58;52.84
46690;BME280;32423;45.398;10.874;2023-02-10T05:07:37;102679.63;;;-1.54;53.36
46690;BME280;32423;45.398;10.874;2023-02-10T05:10:27;102678.34;;;-1.22;52.82
46690;BME280;32423;45.398;10.874;2023-02-10T05:13:19;102680.94;;;-1.28;51.90
46690;BME280;32423;45.398;10.874;2023-02-10T05:16:14;102686.19;;;-1.35;52.54
46690;BME280;32423;45.398;10.874;2023-02-10T05:19:06;102685.09;;;-1.05;51.94
46690;BME280;32423;45.398;10.874;2023-02-10T05:21:59;102692.75;;;-1.16;51.74
46690;BME280;32423;45.398;10.874;2023-02-10T05:24:53;102684.66;;;-1.44;52.71
46690;BME280;32423;45.398;10.874;2023-02-10T05:27:43;102694.19;;;-1.35;52.10
46690;BME280;32423;45.398;10.874;2023-02-10T05:30:37;102698.63;;;-1.06;51.69
46690;BME280;32423;45.398;10.874;2023-02-10T05:33:32;102696.03;;;-1.00;51.44
46690;BME280;32423;45.398;10.874;2023-02-10T05:36:24;102702.00;;;-0.98;51.08
46690;BME280;32423;45.398;10.874;2023-02-10T05:39:18;102703.84;;;-0.77;50.31
46690;BME280;32423;45.398;10.874;2023-02-10T05:42:19;102702.91;;;-1.12;51.12
46690;BME280;32423;45.398;10.874;2023-02-10T05:45:13;102700.41;;;-1.13;52.40
46690;BME280;32423;45.398;10.874;2023-02-10T05:48:08;102697.03;;;-1.01;51.69
46690;BME280;32423;45.398;10.874;2023-02-10T05:51:02;102705.69;;;-0.77;50.48
46690;BME280;32423;45.398;10.874;2023-02-10T05:53:52;102712.41;;;-0.60;50.05
46690;BME280;32423;45.398;10.874;2023-02-10T05:56:47;102724.91;;;-0.67;49.82
46690;BME280;32423;45.398;10.874;2023-02-10T05:59:39;102723.50;;;-0.84;50.16
46690;BME280;32423;45.398;10.874;2023-02-10T06:02:34;102724.41;;;-0.77;49.13
46690;BME280;32423;45.398;10.874;2023-02-10T06:05:28;102727.31;;;-0.94;49.47
46690;BME280;32423;45.398;10.874;2023-02-10T06:08:23;102725.00;;;-1.18;50.32
46690;BME280;32423;45.398;10.874;2023-02-10T06:11:17;102744.31;;;-1.31;50.89
46690;BME280;32423;45.398;10.874;2023-02-10T06:14:07;102729.00;;;-1.07;50.57
46690;BME280;32423;45.398;10.874;2023-02-10T06:17:02;102738.91;;;-1.01;50.59
46690;BME280;32423;45.398;10.874;2023-02-10T06:19:55;102756.06;;;-1.10;50.59
46690;BME280;32423;45.398;10.874;2023-02-10T06:22:49;102755.19;;;-0.96;50.29
46690;BME280;32423;45.398;10.874;2023-02-10T06:25:44;102757.50;;;-0.93;50.27
46690;BME280;32423;45.398;10.874;2023-02-10T06:28:39;102763.16;;;-1.03;50.49
46690;BME280;32423;45.398;10.874;2023-02-10T06:31:34;102768.53;;;-1.32;50.62
46690;BME280;32423;45.398;10.874;2023-02-10T06:34:26;102768.72;;;-1.78;51.97
46690;BME280;32423;45.398;10.874;2023-02-10T06:37:18;102782.41;;;-2.10;52.91
46690;BME280;32423;45.398;10.874;2023-02-10T06:40:12;102775.16;;;-1.87;52.73
46690;BME280;32423;45.398;10.874;2023-02-10T06:43:07;102788.44;;;-1.49;53.21
46690;BME280;32423;45.398;10.874;2023-02-10T06:46:02;102780.91;;;-1.10;52.54
46690;BME280;32423;45.398;10.874;2023-02-10T06:48:56;102794.44;;;-0.97;51.96
46690;BME280;32423;45.398;10.874;2023-02-10T06:51:49;102796.91;;;-0.95;51.89
46690;BME280;32423;45.398;10.874;2023-02-10T06:54:38;102806.19;;;-0.76;51.28
46690;BME280;32423;45.398;10.874;2023-02-10T06:57:33;102804.38;;;-0.69;51.27
46690;BME280;32423;45.398;10.874;2023-02-10T07:00:29;102805.56;;;-0.93;51.74
46690;BME280;32423;45.398;10.874;2023-02-10T07:03:30;102804.38;;;-1.05;52.19
46690;BME280;32423;45.398;10.874;2023-02-10T07:06:24;102813.88;;;-1.32;53.44
46690;BME280;32423;45.398;10.874;2023-02-10T07:09:19;102814.00;;;-1.40;54.22
46690;BME280;32423;45.398;10.874;2023-02-10T07:12:15;102804.72;;;-0.94;52.98
46690;BME280;32423;45.398;10.874;2023-02-10T07:15:14;102813.41;;;-0.92;53.38
46690;BME280;32423;45.398;10.874;2023-02-10T07:18:09;102827.28;;;-0.96;53.38
46690;BME280;32423;45.398;10.874;2023-02-10T07:21:03;102829.34;;;-0.98;53.49
46690;BME280;32423;45.398;10.874;2023-02-10T07:23:58;102825.16;;;-0.86;54.08
46690;BME280;32423;45.398;10.874;2023-02-10T07:26:52;102830.97;;;-0.82;54.06
46690;BME280;32423;45.398;10.874;2023-02-10T07:29:47;102829.41;;;-0.92;55.31
46690;BME280;32423;45.398;10.874;2023-02-10T07:32:37;102840.47;;;-0.59;54.24
46690;BME280;32423;45.398;10.874;2023-02-10T07:35:29;102841.69;;;-0.61;55.07
46690;BME280;32423;45.398;10.874;2023-02-10T07:38:21;102846.00;;;-0.60;55.28
46690;BME280;32423;45.398;10.874;2023-02-10T07:41:13;102856.72;;;-0.39;55.10
46690;BME280;32423;45.398;10.874;2023-02-10T07:44:08;102854.38;;;-0.06;53.74
46690;BME280;32423;45.398;10.874;2023-02-10T07:47:02;102853.28;;;-0.12;54.48
46690;BME280;32423;45.398;10.874;2023-02-10T07:49:54;102854.88;;;0.32;51.63
46690;BME280;32423;45.398;10.874;2023-02-10T07:52:48;102861.66;;;0.56;51.47
46690;BME280;32423;45.398;10.874;2023-02-10T07:55:43;102865.59;;;0.66;51.20
46690;BME280;32423;45.398;10.874;2023-02-10T07:58:38;102873.38;;;0.61;50.86
46690;BME280;32423;45.398;10.874;2023-02-10T08:01:30;102875.16;;;0.75;51.13
46690;BME280;32423;45.398;10.874;2023-02-10T08:04:25;102871.75;;;0.95;50.95
46690;BME280;32423;45.398;10.874;2023-02-10T08:07:19;102863.53;;;1.03;49.30
46690;BME280;32423;45.398;10.874;2023-02-10T08:10:14;102861.13;;;1.14;48.49
46690;BME280;32423;45.398;10.874;2023-02-10T08:13:10;102869.66;;;1.31;48.66
46690;BME280;32423;45.398;10.874;2023-02-10T08:16:05;102862.50;;;1.51;48.65
46690;BME280;32423;45.398;10.874;2023-02-10T08:18:59;102877.34;;;1.54;47.82
46690;BME280;32423;45.398;10.874;2023-02-10T08:21:54;102871.47;;;1.24;49.45
46690;BME280;32423;45.398;10.874;2023-02-10T08:24:49;102874.78;;;1.26;48.59
46690;BME280;32423;45.398;10.874;2023-02-10T08:27:43;102887.66;;;1.63;48.22
46690;BME280;32423;45.398;10.874;2023-02-10T08:30:38;102881.09;;;1.66;46.77
46690;BME280;32423;45.398;10.874;2023-02-10T08:33:33;102891.63;;;1.74;47.32
46690;BME280;32423;45.398;10.874;2023-02-10T08:36:28;102886.47;;;1.79;47.55
46690;BME280;32423;45.398;10.874;2023-02-10T08:39:22;102884.03;;;1.23;47.96
46690;BME280;32423;45.398;10.874;2023-02-10T08:42:17;102891.97;;;1.58;47.47
46690;BME280;32423;45.398;10.874;2023-02-10T08:45:11;102899.38;;;1.49;46.97
46690;BME280;32423;45.398;10.874;2023-02-10T08:48:06;102898.22;;;1.11;47.90
46690;BME280;32423;45.398;10.874;2023-02-10T08:50:58;102892.44;;;1.14;48.77
46690;BME280;32423;45.398;10.874;2023-02-10T08:53:53;102897.34;;;1.51;48.34
46690;BME280;32423;45.398;10.874;2023-02-10T08:56:47;102896.31;;;1.59;48.69
46690;BME280;32423;45.398;10.874;2023-02-10T08:59:38;102906.28;;;1.71;48.59
46690;BME280;32423;45.398;10.874;2023-02-10T09:02:33;102909.19;;;1.90;48.27
46690;BME280;32423;45.398;10.874;2023-02-10T09:05:27;102911.50;;;1.93;47.38
46690;BME280;32423;45.398;10.874;2023-02-10T09:08:22;102905.66;;;1.76;48.36
46690;BME280;32423;45.398;10.874;2023-02-10T09:11:11;102905.34;;;1.45;49.41
46690;BME280;32423;45.398;10.874;2023-02-10T09:14:06;102913.88;;;1.68;48.39
46690;BME280;32423;45.398;10.874;2023-02-10T09:17:00;102921.63;;;2.17;46.96
46690;BME280;32423;45.398;10.874;2023-02-10T09:19:52;102917.47;;;2.14;46.41
46690;BME280;32423;45.398;10.874;2023-02-10T09:22:47;102922.47;;;2.37;46.10
46690;BME280;32423;45.398;10.874;2023-02-10T09:25:42;102931.13;;;2.79;44.31
46690;BME280;32423;45.398;10.874;2023-02-10T09:28:36;102941.22;;;2.70;44.85
46690;BME280;32423;45.398;10.874;2023-02-10T09:31:31;102940.16;;;2.97;42.67
46690;BME280;32423;45.398;10.874;2023-02-10T09:34:26;102941.44;;;2.49;44.43
46690;BME280;32423;45.398;10.874;2023-02-10T09:37:19;102938.94;;;2.93;43.82
46690;BME280;32423;45.398;10.874;2023-02-10T09:40:16;102936.41;;;3.18;42.70
46690;BME280;32423;45.398;10.874;2023-02-10T09:46:34;102940.94;;;3.24;40.82
46690;BME280;32423;45.398;10.874;2023-02-10T09:53:23;102947.56;;;3.15;40.83
46690;BME280;32423;45.398;10.874;2023-02-10T09:56:20;102946.31;;;3.24;41.33
46690;BME280;32423;45.398;10.874;2023-02-10T09:59:16;102946.94;;;3.20;42.40
46690;BME280;32423;45.398;10.874;2023-02-10T10:02:18;102949.53;;;3.46;41.42
46690;BME280;32423;45.398;10.874;2023-02-10T10:05:16;102947.28;;;3.36;41.78
46690;BME280;32423;45.398;10.874;2023-02-10T10:08:17;102942.75;;;3.30;42.12
46690;BME280;32423;45.398;10.874;2023-02-10T10:14:31;102948.28;;;3.49;39.70
46690;BME280;32423;45.398;10.874;2023-02-10T10:20:55;102950.00;;;4.44;39.02
46690;BME280;32423;45.398;10.874;2023-02-10T10:27:17;102951.13;;;4.79;38.19
46690;BME280;32423;45.398;10.874;2023-02-10T10:30:24;102947.75;;;4.41;37.06
46690;BME280;32423;45.398;10.874;2023-02-10T10:33:33;102948.81;;;4.08;37.81
46690;BME280;32423;45.398;10.874;2023-02-10T10:36:45;102948.19;;;3.75;38.97
46690;BME280;32423;45.398;10.874;2023-02-10T10:39:42;102945.88;;;4.16;38.53
46690;BME280;32423;45.398;10.874;2023-02-10T10:42:42;102936.84;;;4.54;37.44
46690;BME280;32423;45.398;10.874;2023-02-10T10:45:38;102934.13;;;4.36;37.80
46690;BME280;32423;45.398;10.874;2023-02-10T10:48:34;102936.19;;;4.34;38.05
46690;BME280;32423;45.398;10.874;2023-02-10T10:51:31;102920.56;;;4.17;37.56
46690;BME280;32423;45.398;10.874;2023-02-10T10:54:24;102916.31;;;4.35;37.24
46690;BME280;32423;45.398;10.874;2023-02-10T10:57:20;102908.00;;;4.36;38.02
46690;BME280;32423;45.398;10.874;2023-02-10T11:00:15;102913.94;;;4.45;37.09
46690;BME280;32423;45.398;10.874;2023-02-10T11:03:16;102916.63;;;4.45;37.81
46690;BME280;32423;45.398;10.874;2023-02-10T11:06:16;102904.75;;;4.52;37.29
46690;BME280;32423;45.398;10.874;2023-02-10T11:12:22;102898.16;;;4.91;36.23
46690;BME280;32423;45.398;10.874;2023-02-10T11:15:41;102899.66;;;4.87;36.51
46690;BME280;32423;45.398;10.874;2023-02-10T11:18:32;102894.72;;;5.02;36.04
46690;BME280;32423;45.398;10.874;2023-02-10T11:21:38;102893.97;;;5.32;35.65
46690;BME280;32423;45.398;10.874;2023-02-10T11:24:33;102892.44;;;5.36;35.84
46690;BME280;32423;45.398;10.874;2023-02-10T11:27:28;102886.50;;;5.45;35.17
46690;BME280;32423;45.398;10.874;2023-02-10T11:30:30;102884.00;;;5.62;35.15
46690;BME280;32423;45.398;10.874;2023-02-10T11:33:26;102887.25;;;5.52;35.62
46690;BME280;32423;45.398;10.874;2023-02-10T11:36:27;102866.94;;;5.50;34.90
46690;BME280;32423;45.398;10.874;2023-02-10T11:40:02;102871.28;;;5.81;34.95
46690;BME280;32423;45.398;10.874;2023-02-10T11:42:33;102871.22;;;5.87;34.62
46690;BME280;32423;45.398;10.874;2023-02-10T11:45:27;102866.19;;;6.03;33.80
46690;BME280;32423;45.398;10.874;2023-02-10T11:48:20;102864.81;;;6.12;33.93
46690;BME280;32423;45.398;10.874;2023-02-10T11:51:15;102872.94;;;6.47;33.11
46690;BME280;32423;45.398;10.874;2023-02-10T11:54:08;102867.75;;;6.45;33.37
46690;BME280;32423;45.398;10.874;2023-02-10T12:00:20;102855.53;;;6.31;33.45
46690;BME280;32423;45.398;10.874;2023-02-10T12:03:23;102843.44;;;6.45;33.90
46690;BME280;32423;45.398;10.874;2023-02-10T12:06:32;102849.78;;;6.74;33.04
46690;BME280;32423;45.398;10.874;2023-02-10T12:18:33;102834.31;;;7.09;31.76
46690;BME280;32423;45.398;10.874;2023-02-10T12:24:23;102824.72;;;7.47;31.09
46690;BME280;32423;45.398;10.874;2023-02-10T12:27:22;102830.38;;;7.17;31.71
46690;BME280;32423;45.398;10.874;2023-02-10T12:36:23;102796.50;;;7.88;31.15
46690;BME280;32423;45.398;10.874;2023-02-10T12:39:27;102793.59;;;7.78;31.06
46690;BME280;32423;45.398;10.874;2023-02-10T12:42:34;102792.81;;;7.77;31.36
46690;BME280;32423;45.398;10.874;2023-02-10T12:45:32;102788.22;;;7.94;31.49
46690;BME280;32423;45.398;10.874;2023-02-10T12:48:28;102790.91;;;8.28;28.47
46690;BME280;32423;45.398;10.874;2023-02-10T12:51:43;102783.88;;;8.48;28.35
46690;BME280;32423;45.398;10.874;2023-02-10T12:57:45;102781.38;;;8.08;28.98
46690;BME280;32423;45.398;10.874;2023-02-10T13:00:35;102790.47;;;8.19;29.60
46690;BME280;32423;45.398;10.874;2023-02-10T13:03:32;102796.31;;;8.28;29.33
46690;BME280;32423;45.398;10.874;2023-02-10T13:06:28;102780.25;;;8.59;30.27
46690;BME280;32423;45.398;10.874;2023-02-10T13:09:41;102775.84;;;8.97;29.32
46690;BME280;32423;45.398;10.874;2023-02-10T13:12:36;102788.69;;;9.07;28.81
46690;BME280;32423;45.398;10.874;2023-02-10T13:15:30;102781.09;;;9.04;28.58
46690;BME280;32423;45.398;10.874;2023-02-10T13:18:24;102772.44;;;9.97;27.62
46690;BME280;32423;45.398;10.874;2023-02-10T13:21:17;102777.88;;;9.65;27.62
46690;BME280;32423;45.398;10.874;2023-02-10T13:24:08;102784.13;;;14.11;23.01
46690;BME280;32423;45.398;10.874;2023-02-10T13:27:03;102785.66;;;17.15;18.92
46690;BME280;32423;45.398;10.874;2023-02-10T13:33:04;102787.06;;;20.15;15.41
46690;BME280;32423;45.398;10.874;2023-02-10T13:35:58;102793.44;;;19.89;15.86
46690;BME280;32423;45.398;10.874;2023-02-10T13:38:50;102786.03;;;20.28;15.25
46690;BME280;32423;45.398;10.874;2023-02-10T13:41:48;102790.09;;;24.85;12.76
46690;BME280;32423;45.398;10.874;2023-02-10T13:44:38;102778.03;;;20.43;15.50
46690;BME280;32423;45.398;10.874;2023-02-10T13:47:42;102778.44;;;20.92;14.94
46690;BME280;32423;45.398;10.874;2023-02-10T13:50:46;102779.66;;;19.89;15.43
46690;BME280;32423;45.398;10.874;2023-02-10T13:53:38;102775.13;;;19.33;15.81
46690;BME280;32423;45.398;10.874;2023-02-10T13:56:31;102767.22;;;20.88;15.19
46690;BME280;32423;45.398;10.874;2023-02-10T14:02:20;102761.59;;;17.57;17.14
46690;BME280;32423;45.398;10.874;2023-02-10T14:05:24;102766.66;;;25.01;11.57
46690;BME280;32423;45.398;10.874;2023-02-10T14:08:24;102767.63;;;19.85;14.37
46690;BME280;32423;45.398;10.874;2023-02-10T14:14:15;102762.75;;;22.97;12.44
46690;BME280;32423;45.398;10.874;2023-02-10T14:17:06;102758.81;;;16.71;16.64
46690;BME280;32423;45.398;10.874;2023-02-10T14:19:58;102766.03;;;19.67;15.03
46690;BME280;32423;45.398;10.874;2023-02-10T14:22:50;102756.53;;;18.34;15.92
46690;BME280;32423;45.398;10.874;2023-02-10T14:25:42;102764.41;;;25.84;11.48
46690;BME280;32423;45.398;10.874;2023-02-10T14:28:40;102763.91;;;26.47;10.34
46690;BME280;32423;45.398;10.874;2023-02-10T14:31:32;102760.53;;;23.15;12.81
46690;BME280;32423;45.398;10.874;2023-02-10T14:34:25;102752.88;;;24.74;12.09
46690;BME280;32423;45.398;10.874;2023-02-10T14:37:17;102756.94;;;26.86;10.20
46690;BME280;32423;45.398;10.874;2023-02-10T14:40:15;102758.03;;;24.40;10.97
46690;BME280;32423;45.398;10.874;2023-02-10T14:43:11;102745.75;;;22.86;13.08
46690;BME280;32423;45.398;10.874;2023-02-10T14:46:04;102752.09;;;25.27;11.34
46690;BME280;32423;45.398;10.874;2023-02-10T14:48:54;102744.38;;;26.73;9.93
46690;BME280;32423;45.398;10.874;2023-02-10T14:51:47;102754.72;;;26.72;9.34
46690;BME280;32423;45.398;10.874;2023-02-10T14:54:37;102744.03;;;22.45;11.73
46690;BME280;32423;45.398;10.874;2023-02-10T14:57:29;102741.84;;;19.21;14.44
46690;BME280;32423;45.398;10.874;2023-02-10T15:00:21;102747.69;;;23.50;11.85
46690;BME280;32423;45.398;10.874;2023-02-10T15:03:13;102734.19;;;21.66;13.36
46690;BME280;32423;45.398;10.874;2023-02-10T15:06:05;102731.97;;;21.60;13.80
46690;BME280;32423;45.398;10.874;2023-02-10T15:09:05;102722.09;;;20.46;14.30
46690;BME280;32423;45.398;10.874;2023-02-10T15:12:00;102731.41;;;21.33;13.83
46690;BME280;32423;45.398;10.874;2023-02-10T15:15:19;102720.56;;;21.08;14.18
46690;BME280;32423;45.398;10.874;2023-02-10T15:18:12;102732.50;;;21.86;13.23
46690;BME280;32423;45.398;10.874;2023-02-10T15:21:21;102729.25;;;20.98;13.78
46690;BME280;32423;45.398;10.874;2023-02-10T15:24:27;102732.72;;;18.77;16.40
46690;BME280;32423;45.398;10.874;2023-02-10T15:27:21;102726.19;;;15.69;19.13
46690;BME280;32423;45.398;10.874;2023-02-10T15:30:22;102721.66;;;14.18;20.93
46690;BME280;32423;45.398;10.874;2023-02-10T15:33:16;102713.66;;;12.32;21.95
46690;BME280;32423;45.398;10.874;2023-02-10T15:39:21;102718.34;;;10.38;24.58
46690;BME280;32423;45.398;10.874;2023-02-10T15:45:16;102717.53;;;11.14;24.67
46690;BME280;32423;45.398;10.874;2023-02-10T15:48:08;102723.00;;;11.45;24.50
46690;BME280;32423;45.398;10.874;2023-02-10T15:51:00;102714.28;;;11.38;24.49
46690;BME280;32423;45.398;10.874;2023-02-10T15:53:55;102709.13;;;11.41;24.80
46690;BME280;32423;45.398;10.874;2023-02-10T15:56:53;102714.84;;;11.55;24.84
46690;BME280;32423;45.398;10.874;2023-02-10T15:59:42;102709.94;;;11.47;24.47
46690;BME280;32423;45.398;10.874;2023-02-10T16:02:34;102715.09;;;11.38;24.85
46690;BME280;32423;45.398;10.874;2023-02-10T16:05:26;102713.16;;;11.19;24.85
46690;BME280;32423;45.398;10.874;2023-02-10T16:08:21;102709.06;;;11.06;25.74
46690;BME280;32423;45.398;10.874;2023-02-10T16:11:13;102716.19;;;10.40;26.80
46690;BME280;32423;45.398;10.874;2023-02-10T16:14:03;102715.72;;;9.10;30.18
46690;BME280;32423;45.398;10.874;2023-02-10T16:16:55;102714.16;;;8.87;31.35
46690;BME280;32423;45.398;10.874;2023-02-10T16:19:44;102717.00;;;8.32;33.18
46690;BME280;32423;45.398;10.874;2023-02-10T16:22:36;102719.47;;;8.17;33.83